createdAt,value
2019-05-14T00:01:48.106Z,9.40
2019-05-14T00:04:16.482Z,9.30
2019-05-14T00:06:44.928Z,9.30
2019-05-14T00:09:13.321Z,9.30
2019-05-14T00:11:42.291Z,9.30
2019-05-14T00:14:11.596Z,9.30
2019-05-14T00:16:42.297Z,9.30
2019-05-14T00:19:11.302Z,9.30
2019-05-14T00:21:42.125Z,9.20
2019-05-14T00:24:11.381Z,9.20
2019-05-14T00:26:42.274Z,9.10
2019-05-14T00:29:11.378Z,9.10
2019-05-14T00:31:42.540Z,9.10
2019-05-14T00:34:11.857Z,9.10
2019-05-14T00:36:42.199Z,9.10
2019-05-14T00:39:11.355Z,9.00
2019-05-14T00:41:41.984Z,9.00
2019-05-14T00:44:13.501Z,9.10
2019-05-14T00:46:42.685Z,9.00
2019-05-14T00:49:12.029Z,9.10
2019-05-14T00:51:41.309Z,9.00
2019-05-14T00:54:11.234Z,9.00
2019-05-14T00:56:41.690Z,9.00
2019-05-14T00:59:11.323Z,9.00
2019-05-14T01:01:42.568Z,9.10
2019-05-14T01:04:11.744Z,9.10
2019-05-14T01:06:42.066Z,9.10
2019-05-14T01:09:11.521Z,9.20
2019-05-14T01:11:42.034Z,9.10
2019-05-14T01:14:12.222Z,9.20
2019-05-14T01:16:42.395Z,9.10
2019-05-14T01:19:12.390Z,9.20
2019-05-14T01:21:41.749Z,9.20
2019-05-14T01:24:12.594Z,9.20
2019-05-14T01:26:41.689Z,9.20
2019-05-14T01:29:11.926Z,9.20
2019-05-14T01:31:41.751Z,9.10
2019-05-14T01:34:11.173Z,9.10
2019-05-14T01:36:41.595Z,9.20
2019-05-14T01:39:12.221Z,9.20
2019-05-14T01:41:42.362Z,9.10
2019-05-14T01:44:11.991Z,9.10
2019-05-14T01:46:42.596Z,9.10
2019-05-14T01:49:12.058Z,9.00
2019-05-14T01:51:42.370Z,9.00
2019-05-14T01:54:11.925Z,9.00
2019-05-14T01:56:42.275Z,9.10
2019-05-14T01:59:12.119Z,9.10
2019-05-14T02:01:41.813Z,9.10
2019-05-14T02:04:11.686Z,9.10
2019-05-14T02:06:41.366Z,9.10
2019-05-14T02:09:11.161Z,9.10
2019-05-14T02:11:41.490Z,9.10
2019-05-14T02:14:11.646Z,9.10
2019-05-14T02:16:42.289Z,9.10
2019-05-14T02:19:11.737Z,9.10
2019-05-14T02:21:42.428Z,9.10
2019-05-14T02:24:11.431Z,9.10
2019-05-14T02:26:42.545Z,9.10
2019-05-14T02:29:12.537Z,9.10
2019-05-14T02:31:41.277Z,9.10
2019-05-14T02:34:10.565Z,9.10
2019-05-14T02:36:40.094Z,9.10
2019-05-14T02:39:10.474Z,9.10
2019-05-14T02:41:40.258Z,9.10
2019-05-14T02:44:10.156Z,9.10
2019-05-14T02:46:40.415Z,9.00
2019-05-14T02:49:11.082Z,9.00
2019-05-14T02:51:39.598Z,9.00
2019-05-14T02:54:10.039Z,9.00
2019-05-14T02:56:40.158Z,9.00
2019-05-14T02:59:09.970Z,8.90
2019-05-14T03:01:40.495Z,9.00
2019-05-14T03:04:09.868Z,9.00
2019-05-14T03:06:39.565Z,9.00
2019-05-14T03:09:09.761Z,9.00
2019-05-14T03:11:40.387Z,9.00
2019-05-14T03:14:09.283Z,9.00
2019-05-14T03:16:40.324Z,9.00
2019-05-14T03:19:10.241Z,8.90
2019-05-14T03:21:39.603Z,8.90
2019-05-14T03:24:09.418Z,8.90
2019-05-14T03:26:39.859Z,8.90
2019-05-14T03:29:10.167Z,9.00
2019-05-14T03:31:42.483Z,9.00
2019-05-14T03:34:13.596Z,8.90
2019-05-14T03:36:42.954Z,8.80
2019-05-14T03:39:12.236Z,8.90
2019-05-14T03:41:42.310Z,8.90
2019-05-14T03:44:12.243Z,8.90
2019-05-14T03:46:51.359Z,8.80
2019-05-14T03:49:14.461Z,8.90
2019-05-14T03:51:43.129Z,9.00
2019-05-14T03:54:12.952Z,8.90
2019-05-14T03:56:41.745Z,8.90
2019-05-14T03:59:10.537Z,9.00
2019-05-14T04:01:40.277Z,9.00
2019-05-14T04:04:10.359Z,9.00
2019-05-14T04:06:42.048Z,9.00
2019-05-14T04:09:13.808Z,9.10
2019-05-14T04:11:45.995Z,9.10
2019-05-14T04:14:20.107Z,9.00
2019-05-14T04:17:05.298Z,9.10
2019-05-14T04:19:23.948Z,9.10
2019-05-14T04:21:54.266Z,9.10
2019-05-14T04:24:24.893Z,9.10
2019-05-14T04:27:03.427Z,9.10
2019-05-14T04:29:30.612Z,9.10
2019-05-14T04:32:01.999Z,9.10
2019-05-14T04:34:31.432Z,9.10
2019-05-14T04:37:00.298Z,9.10
2019-05-14T04:39:31.002Z,9.20
2019-05-14T04:42:00.194Z,9.30
2019-05-14T04:44:30.675Z,9.30
2019-05-14T04:47:00.066Z,9.30
2019-05-14T04:49:32.719Z,9.30
2019-05-14T04:52:03.299Z,9.20
2019-05-14T04:54:31.724Z,9.20
2019-05-14T04:57:00.644Z,9.20
2019-05-14T04:59:30.173Z,9.10
2019-05-14T05:02:00.247Z,9.20
2019-05-14T05:04:31.954Z,9.20
2019-05-14T05:07:00.294Z,9.30
2019-05-14T05:09:29.690Z,9.20
2019-05-14T05:11:59.820Z,9.20
2019-05-14T05:14:30.688Z,9.30
2019-05-14T05:16:59.883Z,9.30
2019-05-14T05:19:29.853Z,9.30
2019-05-14T05:21:58.844Z,9.30
2019-05-14T05:24:28.770Z,9.30
2019-05-14T05:26:58.629Z,9.40
2019-05-14T05:29:28.594Z,9.40
2019-05-14T05:31:59.365Z,9.30
2019-05-14T05:34:28.303Z,9.40
2019-05-14T05:36:59.238Z,9.40
2019-05-14T05:39:28.402Z,9.40
2019-05-14T05:41:58.719Z,9.40
2019-05-14T05:44:28.792Z,9.40
2019-05-14T05:46:59.656Z,9.40
2019-05-14T05:49:29.466Z,9.30
2019-05-14T05:52:00.267Z,9.40
2019-05-14T05:54:29.464Z,9.40
2019-05-14T05:56:58.910Z,9.50
2019-05-14T05:59:29.376Z,9.50
2019-05-14T06:01:58.636Z,9.60
2019-05-14T06:04:28.969Z,9.60
2019-05-14T06:06:58.710Z,9.60
2019-05-14T06:09:28.779Z,9.60
2019-05-14T06:11:59.238Z,9.60
2019-05-14T06:14:29.151Z,9.70
2019-05-14T06:16:59.315Z,9.70
2019-05-14T06:19:29.009Z,9.80
2019-05-14T06:21:59.747Z,9.80
2019-05-14T06:24:30.488Z,9.80
2019-05-14T06:26:59.118Z,10.00
2019-05-14T06:29:29.105Z,10.10
2019-05-14T06:31:58.899Z,10.10
2019-05-14T06:34:29.157Z,10.10
2019-05-14T06:36:59.199Z,10.20
2019-05-14T06:39:28.309Z,10.10
2019-05-14T06:41:58.612Z,10.20
2019-05-14T06:44:29.428Z,10.20
2019-05-14T06:46:59.183Z,10.20
2019-05-14T06:49:28.947Z,10.40
2019-05-14T06:51:59.797Z,10.50
2019-05-14T06:54:29.281Z,10.50
2019-05-14T06:56:58.466Z,10.70
2019-05-14T06:59:28.792Z,10.70
2019-05-14T07:01:58.017Z,10.80
2019-05-14T07:04:28.664Z,10.70
2019-05-14T07:06:59.125Z,10.60
2019-05-14T07:09:28.906Z,10.70
2019-05-14T07:11:58.495Z,10.70
2019-05-14T07:14:28.256Z,10.70
2019-05-14T07:16:58.803Z,10.80
2019-05-14T07:19:29.372Z,10.70
2019-05-14T07:21:58.420Z,10.80
2019-05-14T07:24:28.344Z,10.70
2019-05-14T07:26:58.683Z,10.80
2019-05-14T07:29:29.312Z,10.80
2019-05-14T07:31:59.103Z,10.90
2019-05-14T07:34:28.275Z,10.90
2019-05-14T07:36:58.718Z,11.00
2019-05-14T07:39:29.085Z,11.00
2019-05-14T07:41:59.048Z,11.10
2019-05-14T07:44:29.678Z,11.20
2019-05-14T07:47:00.702Z,11.30
2019-05-14T07:49:30.685Z,11.20
2019-05-14T07:52:01.756Z,11.10
2019-05-14T07:54:30.793Z,11.10
2019-05-14T07:56:59.611Z,10.90
2019-05-14T07:59:28.840Z,10.90
2019-05-14T08:01:58.573Z,10.90
2019-05-14T08:04:29.016Z,10.80
2019-05-14T08:06:58.300Z,10.70
2019-05-14T08:09:28.406Z,10.70
2019-05-14T08:11:58.806Z,10.70
2019-05-14T08:14:29.407Z,10.70
2019-05-14T08:16:59.523Z,10.70
2019-05-14T08:19:31.501Z,10.80
2019-05-14T08:22:00.998Z,11.00
2019-05-14T08:24:30.192Z,11.10
2019-05-14T08:26:59.076Z,11.20
2019-05-14T08:29:28.683Z,11.40
2019-05-14T08:31:58.223Z,11.60
2019-05-14T08:34:30.414Z,11.70
2019-05-14T08:36:58.827Z,11.70
2019-05-14T08:39:28.574Z,11.70
2019-05-14T08:42:03.081Z,11.80
2019-05-14T08:44:29.365Z,11.90
2019-05-14T08:46:59.000Z,11.90
2019-05-14T08:49:39.218Z,11.90
2019-05-14T08:51:59.778Z,11.90
2019-05-14T08:54:30.014Z,11.90
2019-05-14T08:56:59.003Z,11.90
2019-05-14T08:59:29.897Z,11.90
2019-05-14T09:02:06.227Z,11.90
2019-05-14T09:04:30.787Z,11.80
2019-05-14T09:06:59.724Z,11.60
2019-05-14T09:09:29.280Z,11.70
2019-05-14T09:11:59.899Z,11.60
2019-05-14T09:14:30.332Z,11.60
2019-05-14T09:17:00.537Z,11.50
2019-05-14T09:19:30.118Z,11.50
2019-05-14T09:21:59.083Z,11.50
2019-05-14T09:24:29.243Z,11.50
2019-05-14T09:26:59.231Z,11.60
2019-05-14T09:29:29.833Z,11.60
2019-05-14T09:31:59.242Z,11.80
2019-05-14T09:34:29.280Z,11.90
2019-05-14T09:36:59.422Z,12.00
2019-05-14T09:39:29.094Z,12.20
2019-05-14T09:41:58.202Z,12.40
2019-05-14T09:44:29.182Z,12.60
2019-05-14T09:46:59.366Z,12.60
2019-05-14T09:49:29.797Z,12.60
2019-05-14T09:51:58.513Z,12.80
2019-05-14T09:54:28.850Z,12.90
2019-05-14T09:56:59.918Z,13.00
2019-05-14T09:59:30.482Z,13.00
2019-05-14T10:01:59.663Z,12.90
2019-05-14T10:04:28.619Z,12.70
2019-05-14T10:06:59.265Z,12.50
2019-05-14T10:09:29.023Z,12.20
2019-05-14T10:11:58.169Z,11.90
2019-05-14T10:14:29.600Z,11.80
2019-05-14T10:16:58.350Z,11.70
2019-05-14T10:19:29.558Z,11.70
2019-05-14T10:21:58.831Z,11.70
2019-05-14T10:24:29.140Z,11.70
2019-05-14T10:26:58.641Z,11.70
2019-05-14T10:29:28.604Z,11.80
2019-05-14T10:31:59.235Z,11.80
2019-05-14T10:34:28.851Z,11.90
2019-05-14T10:36:59.406Z,12.10
2019-05-14T10:39:29.847Z,12.40
2019-05-14T10:41:58.592Z,12.50
2019-05-14T10:44:29.218Z,12.50
2019-05-14T10:46:58.412Z,12.70
2019-05-14T10:49:29.705Z,12.90
2019-05-14T10:51:59.114Z,12.80
2019-05-14T10:54:29.562Z,12.70
2019-05-14T10:57:00.518Z,12.70
2019-05-14T10:59:29.969Z,12.50
2019-05-14T11:01:58.813Z,12.30
2019-05-14T11:04:28.757Z,12.10
2019-05-14T11:06:57.384Z,11.90
2019-05-14T11:09:28.432Z,11.80
2019-05-14T11:11:58.367Z,11.80
2019-05-14T11:14:31.644Z,11.90
2019-05-14T11:16:59.214Z,12.10
2019-05-14T11:19:28.199Z,12.30
2019-05-14T11:21:57.917Z,12.40
2019-05-14T11:24:29.600Z,12.50
2019-05-14T11:26:59.057Z,12.50
2019-05-14T11:29:29.568Z,12.50
2019-05-14T11:31:58.804Z,12.60
2019-05-14T11:34:28.770Z,12.50
2019-05-14T11:36:58.901Z,12.50
2019-05-14T11:39:28.924Z,12.50
2019-05-14T11:41:59.091Z,12.50
2019-05-14T11:44:28.599Z,12.70
2019-05-14T11:47:02.021Z,12.80
2019-05-14T11:49:27.994Z,12.80
2019-05-14T11:52:07.188Z,12.80
2019-05-14T11:54:29.222Z,12.70
2019-05-14T11:56:58.965Z,12.60
2019-05-14T11:59:29.727Z,12.50
2019-05-14T12:01:59.461Z,12.30
2019-05-14T12:04:28.527Z,12.20
2019-05-14T12:06:59.093Z,12.10
2019-05-14T12:09:28.473Z,12.10
2019-05-14T12:11:58.742Z,12.10
2019-05-14T12:14:27.583Z,12.10
2019-05-14T12:16:56.376Z,12.20
2019-05-14T12:19:24.977Z,12.20
2019-05-14T12:22:05.782Z,12.20
2019-05-14T12:24:23.999Z,12.30
2019-05-14T12:26:52.841Z,12.20
2019-05-14T12:29:21.889Z,12.00
2019-05-14T12:31:50.836Z,11.90
2019-05-14T12:34:19.818Z,11.90
2019-05-14T12:36:49.253Z,11.90
2019-05-14T12:39:18.874Z,11.90
2019-05-14T12:41:49.163Z,11.80
2019-05-14T12:44:19.624Z,11.60
2019-05-14T12:46:49.140Z,11.70
2019-05-14T12:49:18.805Z,11.60
2019-05-14T12:51:49.345Z,11.60
2019-05-14T12:54:19.974Z,11.60
2019-05-14T12:56:51.263Z,11.50
2019-05-14T12:59:20.186Z,11.50
2019-05-14T13:01:50.793Z,11.40
2019-05-14T13:04:20.077Z,11.40
2019-05-14T13:06:49.070Z,11.40
2019-05-14T13:09:21.585Z,11.40
2019-05-14T13:11:49.197Z,11.40
2019-05-14T13:14:18.263Z,11.50
2019-05-14T13:16:48.665Z,11.60
2019-05-14T13:19:18.998Z,11.60
2019-05-14T13:21:48.882Z,11.70
2019-05-14T13:24:18.781Z,11.60
2019-05-14T13:26:49.721Z,11.50
2019-05-14T13:29:19.304Z,11.50
2019-05-14T13:31:49.703Z,11.50
2019-05-14T13:34:19.497Z,11.40
2019-05-14T13:36:48.948Z,11.40
2019-05-14T13:39:19.367Z,11.40
2019-05-14T13:41:48.633Z,11.30
2019-05-14T13:44:24.557Z,11.20
2019-05-14T13:46:48.692Z,11.10
2019-05-14T13:49:19.082Z,11.10
2019-05-14T13:51:49.059Z,11.10
2019-05-14T13:54:19.293Z,11.00
2019-05-14T13:56:48.483Z,11.00
2019-05-14T13:59:18.815Z,11.00
2019-05-14T14:01:48.740Z,11.00
2019-05-14T14:04:19.665Z,11.00
2019-05-14T14:06:49.110Z,11.00
2019-05-14T14:09:18.498Z,11.00
2019-05-14T14:11:48.283Z,11.00
2019-05-14T14:14:19.917Z,11.10
2019-05-14T14:16:48.945Z,11.00
2019-05-14T14:19:18.774Z,11.00
2019-05-14T14:21:49.487Z,11.00
2019-05-14T14:24:19.732Z,10.90
2019-05-14T14:26:48.897Z,10.90
2019-05-14T14:29:18.638Z,10.80
2019-05-14T14:31:48.506Z,10.80
2019-05-14T14:34:18.154Z,10.80
2019-05-14T14:36:50.001Z,10.80
2019-05-14T14:39:19.165Z,10.80
2019-05-14T14:41:48.837Z,10.80
2019-05-14T14:44:19.114Z,10.80
2019-05-14T14:46:48.534Z,10.80
2019-05-14T14:49:19.078Z,10.80
2019-05-14T14:51:49.171Z,10.80
2019-05-14T14:54:18.219Z,10.70
2019-05-14T14:56:48.757Z,10.70
2019-05-14T14:59:19.170Z,10.70
2019-05-14T15:01:50.147Z,10.70
2019-05-14T15:04:21.524Z,10.70
2019-05-14T15:06:51.180Z,10.70
2019-05-14T15:09:20.783Z,10.60
2019-05-14T15:11:49.539Z,10.60
2019-05-14T15:14:20.185Z,10.60
2019-05-14T15:16:49.718Z,10.60
2019-05-14T15:19:19.463Z,10.50
2019-05-14T15:21:49.079Z,10.50
2019-05-14T15:24:19.558Z,10.50
2019-05-14T15:26:48.214Z,10.50
2019-05-14T15:29:18.631Z,10.50
2019-05-14T15:31:48.569Z,10.50
2019-05-14T15:34:18.998Z,10.50
2019-05-14T15:36:49.261Z,10.50
2019-05-14T15:39:22.303Z,10.40
2019-05-14T15:41:49.875Z,10.40
2019-05-14T15:44:19.770Z,10.30
2019-05-14T15:46:49.333Z,10.20
2019-05-14T15:49:19.214Z,10.30
2019-05-14T15:51:47.886Z,10.20
2019-05-14T15:54:36.202Z,10.20
2019-05-14T15:56:49.355Z,10.20
2019-05-14T15:59:19.300Z,10.30
2019-05-14T16:01:50.491Z,10.30
2019-05-14T16:04:21.504Z,10.30
2019-05-14T16:06:50.345Z,10.30
2019-05-14T16:09:19.620Z,10.30
2019-05-14T16:11:49.275Z,10.30
2019-05-14T16:14:19.115Z,10.30
2019-05-14T16:16:48.711Z,10.30
2019-05-14T16:19:19.073Z,10.20
2019-05-14T16:21:48.127Z,10.20
2019-05-14T16:24:20.052Z,10.30
2019-05-14T16:26:47.833Z,10.20
2019-05-14T16:29:19.201Z,10.20
2019-05-14T16:31:48.673Z,10.20
2019-05-14T16:34:18.184Z,10.20
2019-05-14T16:36:48.772Z,10.20
2019-05-14T16:39:19.238Z,10.10
2019-05-14T16:41:49.060Z,10.20
2019-05-14T16:44:18.889Z,10.10
2019-05-14T16:46:48.501Z,10.10
2019-05-14T16:49:18.563Z,10.10
2019-05-14T16:51:49.565Z,10.10
2019-05-14T16:54:18.445Z,10.10
2019-05-14T16:56:48.299Z,10.00
2019-05-14T16:59:18.647Z,10.00
2019-05-14T17:01:49.493Z,10.00
2019-05-14T17:04:19.064Z,10.10
2019-05-14T17:06:49.636Z,10.10
2019-05-14T17:09:18.742Z,10.20
2019-05-14T17:11:48.189Z,10.10
2019-05-14T17:14:18.330Z,10.10
2019-05-14T17:16:49.093Z,10.10
2019-05-14T17:19:19.008Z,10.10
2019-05-14T17:21:48.698Z,9.90
2019-05-14T17:24:19.779Z,10.10
2019-05-14T17:26:48.877Z,10.10
2019-05-14T17:29:19.173Z,10.10
2019-05-14T17:31:49.346Z,10.10
2019-05-14T17:34:18.723Z,10.00
2019-05-14T17:36:48.359Z,10.00
2019-05-14T17:39:18.796Z,10.00
2019-05-14T17:41:48.590Z,10.00
2019-05-14T17:44:17.608Z,10.00
2019-05-14T17:46:48.717Z,10.00
2019-05-14T17:49:19.274Z,10.00
2019-05-14T17:51:48.572Z,10.00
2019-05-14T17:54:18.536Z,10.00
2019-05-14T17:56:48.601Z,10.00
2019-05-14T17:59:19.067Z,10.00
2019-05-14T18:01:50.185Z,10.00
2019-05-14T18:04:21.123Z,10.00
2019-05-14T18:06:52.195Z,10.00
2019-05-14T18:09:21.499Z,10.10
2019-05-14T18:11:50.826Z,10.10
2019-05-14T18:14:19.768Z,10.00
2019-05-14T18:16:48.932Z,10.00
2019-05-14T18:19:18.279Z,10.00
2019-05-14T18:21:48.666Z,10.00
2019-05-14T18:24:18.897Z,10.00
2019-05-14T18:26:48.111Z,10.00
2019-05-14T18:29:18.910Z,10.00
2019-05-14T18:31:53.098Z,10.00
2019-05-14T18:34:18.924Z,10.00
2019-05-14T18:36:48.869Z,10.00
2019-05-14T18:39:20.794Z,10.00
2019-05-14T18:41:49.840Z,10.00
2019-05-14T18:44:19.223Z,10.00
2019-05-14T18:46:48.591Z,10.00
2019-05-14T18:49:19.666Z,10.00
2019-05-14T18:51:50.104Z,10.00
2019-05-14T18:54:18.709Z,10.00
2019-05-14T18:56:48.912Z,10.00
2019-05-14T18:59:21.323Z,10.00
2019-05-14T19:01:48.875Z,10.00
2019-05-14T19:04:20.657Z,10.00
2019-05-14T19:06:49.203Z,10.00
2019-05-14T19:09:19.730Z,10.00
2019-05-14T19:11:48.384Z,10.00
2019-05-14T19:14:18.761Z,10.00
2019-05-14T19:16:48.983Z,10.00
2019-05-14T19:19:20.483Z,10.10
2019-05-14T19:21:48.905Z,10.00
2019-05-14T19:24:19.100Z,10.10
2019-05-14T19:26:49.287Z,10.00
2019-05-14T19:29:18.536Z,10.00
2019-05-14T19:31:48.163Z,10.00
2019-05-14T19:34:19.104Z,10.10
2019-05-14T19:36:47.229Z,10.00
2019-05-14T19:39:15.992Z,10.00
2019-05-14T19:41:44.637Z,10.00
2019-05-14T19:44:13.398Z,10.00
2019-05-14T19:46:42.666Z,10.00
2019-05-14T19:49:11.822Z,10.10
2019-05-14T19:51:41.899Z,10.00
2019-05-14T19:54:10.494Z,10.00
2019-05-14T19:56:51.830Z,10.00
2019-05-14T19:59:10.041Z,10.00
2019-05-14T20:01:38.808Z,10.00
2019-05-14T20:04:09.556Z,10.00
2019-05-14T20:06:40.136Z,10.00
2019-05-14T20:09:09.554Z,10.00
2019-05-14T20:11:40.282Z,10.00
2019-05-14T20:14:08.947Z,10.00
2019-05-14T20:16:39.258Z,10.00
2019-05-14T20:19:08.848Z,10.00
2019-05-14T20:21:38.932Z,10.00
2019-05-14T20:24:08.282Z,10.00
2019-05-14T20:26:38.949Z,10.10
2019-05-14T20:29:08.716Z,10.10
2019-05-14T20:31:38.953Z,10.10
2019-05-14T20:34:08.451Z,10.10
2019-05-14T20:36:38.956Z,10.10
2019-05-14T20:39:08.620Z,10.00
2019-05-14T20:41:38.507Z,10.10
2019-05-14T20:44:07.311Z,10.10
2019-05-14T20:46:38.080Z,10.10
2019-05-14T20:49:08.780Z,10.10
2019-05-14T20:51:38.899Z,10.20
2019-05-14T20:54:08.915Z,10.10
2019-05-14T20:56:40.025Z,10.10
2019-05-14T20:59:08.417Z,10.10
2019-05-14T21:01:38.753Z,10.10
2019-05-14T21:04:09.037Z,10.10
2019-05-14T21:06:39.086Z,10.10
2019-05-14T21:09:09.397Z,10.10
2019-05-14T21:11:38.515Z,10.10
2019-05-14T21:14:09.387Z,10.10
2019-05-14T21:16:39.178Z,10.10
2019-05-14T21:19:08.632Z,10.10
2019-05-14T21:21:38.344Z,10.10
2019-05-14T21:24:08.825Z,10.00
2019-05-14T21:26:40.075Z,10.10
2019-05-14T21:29:08.807Z,10.00
2019-05-14T21:31:38.489Z,10.00
2019-05-14T21:34:08.120Z,10.10
2019-05-14T21:36:38.939Z,10.10
2019-05-14T21:39:08.136Z,10.10
2019-05-14T21:41:38.645Z,10.10
2019-05-14T21:44:08.533Z,10.00
2019-05-14T21:46:39.848Z,10.10
2019-05-14T21:49:10.531Z,10.10
2019-05-14T21:51:39.241Z,10.00
2019-05-14T21:54:09.516Z,10.00
2019-05-14T21:56:39.006Z,10.00
2019-05-14T21:59:09.513Z,10.00
2019-05-14T22:01:39.254Z,10.00
2019-05-14T22:04:11.341Z,10.00
2019-05-14T22:06:41.371Z,10.00
2019-05-14T22:09:10.902Z,10.00
2019-05-14T22:11:41.749Z,10.00
2019-05-14T22:14:12.142Z,10.00
2019-05-14T22:16:40.582Z,10.00
2019-05-14T22:19:09.108Z,10.00
2019-05-14T22:21:41.358Z,10.10
2019-05-14T22:24:08.519Z,10.00
2019-05-14T22:26:38.801Z,10.10
2019-05-14T22:29:08.420Z,10.10
2019-05-14T22:31:39.495Z,10.10
2019-05-14T22:34:08.899Z,10.10
2019-05-14T22:36:38.692Z,10.10
2019-05-14T22:39:07.727Z,10.20
2019-05-14T22:41:38.269Z,10.10
2019-05-14T22:44:09.041Z,10.10
2019-05-14T22:46:39.919Z,10.10
2019-05-14T22:49:09.180Z,10.10
2019-05-14T22:51:38.333Z,10.10
2019-05-14T22:54:08.678Z,10.10
2019-05-14T22:56:39.085Z,10.10
2019-05-14T22:59:07.672Z,10.10
2019-05-14T23:01:38.466Z,10.10
2019-05-14T23:04:09.058Z,10.10
2019-05-14T23:06:38.255Z,10.00
2019-05-14T23:09:09.021Z,10.10
2019-05-14T23:11:39.664Z,10.10
2019-05-14T23:14:09.655Z,10.10
2019-05-14T23:16:41.981Z,10.10
2019-05-14T23:19:10.410Z,10.10
2019-05-14T23:21:39.466Z,10.10
2019-05-14T23:24:09.169Z,10.10
2019-05-14T23:26:37.936Z,10.10
2019-05-14T23:29:06.801Z,10.10
2019-05-14T23:31:38.241Z,10.20
2019-05-14T23:34:06.284Z,10.20
2019-05-14T23:36:35.184Z,10.20
2019-05-14T23:39:05.759Z,10.20
2019-05-14T23:41:34.706Z,10.20
2019-05-14T23:44:05.259Z,10.20
2019-05-14T23:46:33.930Z,10.20
2019-05-14T23:49:02.583Z,10.20
2019-05-14T23:51:31.363Z,10.20
2019-05-14T23:53:59.956Z,10.20
2019-05-14T23:56:30.225Z,10.20
2019-05-14T23:59:01.966Z,10.20
